createdAt,value
2023-04-12T00:00:42.621Z,754.00
2023-04-12T00:01:42.644Z,754.00
2023-04-12T00:02:42.897Z,751.00
2023-04-12T00:03:43.159Z,749.00
2023-04-12T00:04:42.927Z,753.00
2023-04-12T00:05:42.759Z,755.00
2023-04-12T00:06:42.718Z,751.00
2023-04-12T00:07:42.934Z,760.00
2023-04-12T00:08:42.813Z,753.00
2023-04-12T00:09:42.900Z,757.00
2023-04-12T00:10:42.816Z,752.00
2023-04-12T00:11:42.901Z,755.00
2023-04-12T00:12:42.907Z,754.00
2023-04-12T00:13:42.907Z,753.00
2023-04-12T00:14:42.930Z,748.00
2023-04-12T00:15:43.024Z,752.00
2023-04-12T00:16:42.994Z,754.00
2023-04-12T00:17:43.138Z,755.00
2023-04-12T00:18:43.389Z,759.00
2023-04-12T00:19:43.024Z,753.00
2023-04-12T00:20:43.069Z,760.00
2023-04-12T00:21:43.072Z,762.00
2023-04-12T00:22:43.140Z,753.00
2023-04-12T00:23:43.137Z,751.00
2023-04-12T00:24:43.199Z,756.00
2023-04-12T00:25:43.241Z,761.00
2023-04-12T00:26:43.321Z,746.00
2023-04-12T00:27:43.251Z,748.00
2023-04-12T00:28:43.325Z,763.00
2023-04-12T00:29:43.293Z,756.00
2023-04-12T00:30:43.339Z,758.00
2023-04-12T00:31:43.527Z,763.00
2023-04-12T00:32:43.443Z,755.00
2023-04-12T00:33:43.439Z,755.00
2023-04-12T00:34:43.432Z,760.00
2023-04-12T00:35:43.479Z,759.00
2023-04-12T00:36:43.493Z,761.00
2023-04-12T00:37:43.558Z,761.00
2023-04-12T00:38:43.533Z,757.00
2023-04-12T00:39:43.601Z,754.00
2023-04-12T00:40:43.612Z,766.00
2023-04-12T00:41:43.625Z,764.00
2023-04-12T00:42:43.678Z,760.00
2023-04-12T00:43:43.730Z,758.00
2023-04-12T00:44:43.732Z,762.00
2023-04-12T00:45:43.767Z,757.00
2023-04-12T00:46:43.793Z,759.00
2023-04-12T00:47:43.926Z,755.00
2023-04-12T00:48:43.821Z,761.00
2023-04-12T00:49:43.827Z,755.00
2023-04-12T00:50:43.934Z,756.00
2023-04-12T00:51:43.878Z,759.00
2023-04-12T00:52:43.924Z,764.00
2023-04-12T00:53:44.003Z,770.00
2023-04-12T00:54:43.989Z,764.00
2023-04-12T00:55:44.008Z,761.00
2023-04-12T00:56:44.027Z,759.00
2023-04-12T00:57:44.033Z,753.00
2023-04-12T00:58:44.101Z,772.00
2023-04-12T00:59:44.142Z,756.00
2023-04-12T01:00:44.269Z,753.00
2023-04-12T01:01:44.244Z,764.00
2023-04-12T01:02:44.376Z,768.00
2023-04-12T01:03:44.303Z,753.00
2023-04-12T01:04:44.257Z,754.00
2023-04-12T01:05:44.290Z,753.00
2023-04-12T01:06:44.300Z,758.00
2023-04-12T01:07:44.379Z,764.00
2023-04-12T01:08:44.362Z,758.00
2023-04-12T01:09:44.422Z,763.00
2023-04-12T01:10:44.428Z,760.00
2023-04-12T01:11:44.444Z,768.00
2023-04-12T01:12:44.459Z,771.00
2023-04-12T01:13:44.497Z,770.00
2023-04-12T01:14:44.482Z,777.00
2023-04-12T01:15:44.537Z,770.00
2023-04-12T01:16:44.680Z,766.00
2023-04-12T01:17:44.612Z,771.00
2023-04-12T01:18:44.645Z,767.00
2023-04-12T01:19:44.660Z,773.00
2023-04-12T01:20:44.720Z,767.00
2023-04-12T01:21:44.707Z,764.00
2023-04-12T01:22:44.720Z,767.00
2023-04-12T01:23:44.830Z,771.00
2023-04-12T01:24:44.792Z,768.00
2023-04-12T01:25:44.863Z,775.00
2023-04-12T01:26:44.837Z,759.00
2023-04-12T01:27:44.898Z,775.00
2023-04-12T01:28:44.874Z,767.00
2023-04-12T01:29:44.963Z,777.00
2023-04-12T01:30:44.968Z,769.00
2023-04-12T01:31:44.993Z,774.00
2023-04-12T01:32:45.024Z,776.00
2023-04-12T01:33:44.999Z,772.00
2023-04-12T01:34:45.069Z,767.00
2023-04-12T01:35:45.146Z,766.00
2023-04-12T01:36:45.066Z,753.00
2023-04-12T01:37:45.123Z,761.00
2023-04-12T01:38:45.136Z,768.00
2023-04-12T01:39:45.132Z,770.00
2023-04-12T01:40:45.171Z,770.00
2023-04-12T01:41:45.177Z,774.00
2023-04-12T01:42:45.176Z,772.00
2023-04-12T01:43:45.298Z,776.00
2023-04-12T01:44:45.270Z,776.00
2023-04-12T01:45:45.318Z,778.00
2023-04-12T01:46:45.315Z,769.00
2023-04-12T01:47:45.384Z,774.00
2023-04-12T01:48:45.331Z,777.00
2023-04-12T01:49:45.334Z,785.00
2023-04-12T01:50:45.426Z,773.00
2023-04-12T01:51:45.420Z,771.00
2023-04-12T01:52:45.479Z,772.00
2023-04-12T01:53:45.505Z,773.00
2023-04-12T01:54:45.492Z,766.00
2023-04-12T01:55:45.525Z,774.00
2023-04-12T01:56:45.579Z,773.00
2023-04-12T01:57:45.563Z,779.00
2023-04-12T01:58:45.632Z,773.00
2023-04-12T01:59:45.693Z,770.00
2023-04-12T02:00:45.732Z,777.00
2023-04-12T02:01:45.740Z,775.00
2023-04-12T02:02:45.821Z,775.00
2023-04-12T02:03:45.824Z,773.00
2023-04-12T02:04:45.825Z,776.00
2023-04-12T02:05:45.886Z,787.00
2023-04-12T02:06:45.917Z,779.00
2023-04-12T02:07:45.965Z,774.00
2023-04-12T02:08:45.942Z,772.00
2023-04-12T02:09:45.964Z,774.00
2023-04-12T02:10:46.022Z,776.00
2023-04-12T02:11:46.042Z,771.00
2023-04-12T02:12:46.077Z,773.00
2023-04-12T02:13:46.103Z,773.00
2023-04-12T02:14:46.131Z,773.00
2023-04-12T02:15:46.214Z,773.00
2023-04-12T02:16:46.248Z,775.00
2023-04-12T02:17:46.246Z,776.00
2023-04-12T02:18:46.261Z,766.00
2023-04-12T02:19:46.290Z,776.00
2023-04-12T02:20:46.337Z,769.00
2023-04-12T02:21:46.341Z,771.00
2023-04-12T02:22:46.407Z,776.00
2023-04-12T02:23:46.463Z,780.00
2023-04-12T02:24:46.433Z,762.00
2023-04-12T02:25:46.478Z,776.00
2023-04-12T02:26:46.491Z,771.00
2023-04-12T02:27:46.535Z,767.00
2023-04-12T02:28:46.555Z,773.00
2023-04-12T02:29:46.603Z,784.00
2023-04-12T02:30:46.730Z,777.00
2023-04-12T02:31:46.755Z,776.00
2023-04-12T02:32:46.732Z,778.00
2023-04-12T02:33:46.759Z,775.00
2023-04-12T02:34:46.741Z,776.00
2023-04-12T02:35:46.868Z,770.00
2023-04-12T02:36:46.873Z,776.00
2023-04-12T02:37:46.861Z,781.00
2023-04-12T02:38:46.892Z,766.00
2023-04-12T02:39:46.953Z,779.00
2023-04-12T02:40:46.938Z,778.00
2023-04-12T02:41:47.004Z,777.00
2023-04-12T02:42:46.962Z,778.00
2023-04-12T02:43:46.994Z,785.00
2023-04-12T02:44:47.045Z,779.00
2023-04-12T02:45:47.158Z,783.00
2023-04-12T02:46:47.136Z,777.00
2023-04-12T02:47:47.174Z,777.00
2023-04-12T02:48:47.171Z,775.00
2023-04-12T02:49:47.226Z,769.00
2023-04-12T02:50:47.243Z,782.00
2023-04-12T02:51:47.261Z,777.00
2023-04-12T02:52:47.278Z,767.00
2023-04-12T02:53:47.330Z,777.00
2023-04-12T02:54:47.403Z,781.00
2023-04-12T02:55:47.406Z,770.00
2023-04-12T02:56:47.430Z,780.00
2023-04-12T02:57:47.493Z,782.00
2023-04-12T02:58:47.470Z,786.00
2023-04-12T02:59:47.514Z,778.00
2023-04-12T03:00:47.522Z,775.00
2023-04-12T03:01:47.611Z,773.00
2023-04-12T03:02:47.685Z,784.00
2023-04-12T03:03:47.790Z,774.00
2023-04-12T03:04:47.656Z,772.00
2023-04-12T03:05:47.708Z,773.00
2023-04-12T03:06:47.707Z,783.00
2023-04-12T03:07:47.779Z,774.00
2023-04-12T03:08:47.787Z,784.00
2023-04-12T03:09:47.875Z,774.00
2023-04-12T03:10:47.972Z,769.00
2023-04-12T03:11:47.910Z,780.00
2023-04-12T03:12:47.996Z,774.00
2023-04-12T03:13:47.984Z,768.00
2023-04-12T03:14:47.987Z,773.00
2023-04-12T03:15:48.122Z,773.00
2023-04-12T03:16:48.062Z,775.00
2023-04-12T03:17:48.137Z,775.00
2023-04-12T03:18:48.114Z,780.00
2023-04-12T03:19:48.162Z,784.00
2023-04-12T03:20:48.166Z,781.00
2023-04-12T03:21:48.234Z,785.00
2023-04-12T03:22:48.285Z,783.00
2023-04-12T03:23:48.296Z,777.00
2023-04-12T03:24:48.341Z,775.00
2023-04-12T03:25:48.422Z,777.00
2023-04-12T03:26:48.418Z,780.00
2023-04-12T03:27:48.462Z,772.00
2023-04-12T03:28:48.499Z,782.00
2023-04-12T03:29:48.541Z,777.00
2023-04-12T03:30:48.611Z,779.00
2023-04-12T03:31:48.617Z,781.00
2023-04-12T03:32:48.681Z,780.00
2023-04-12T03:33:48.779Z,767.00
2023-04-12T03:34:48.745Z,780.00
2023-04-12T03:35:48.802Z,787.00
2023-04-12T03:36:48.861Z,776.00
2023-04-12T03:37:48.898Z,777.00
2023-04-12T03:38:48.920Z,779.00
2023-04-12T03:39:48.922Z,779.00
2023-04-12T03:40:48.983Z,788.00
2023-04-12T03:41:49.042Z,787.00
2023-04-12T03:42:49.047Z,772.00
2023-04-12T03:43:49.094Z,777.00
2023-04-12T03:44:49.091Z,777.00
2023-04-12T03:45:49.159Z,787.00
2023-04-12T03:46:49.448Z,783.00
2023-04-12T03:47:49.286Z,786.00
2023-04-12T03:48:49.376Z,777.00
2023-04-12T03:50:05.119Z,778.00
2023-04-12T03:50:50.537Z,779.00
2023-04-12T03:51:49.295Z,778.00
2023-04-12T03:52:49.317Z,781.00
2023-04-12T03:53:49.326Z,784.00
2023-04-12T03:54:49.441Z,778.00
2023-04-12T03:55:49.332Z,777.00
2023-04-12T03:56:49.292Z,776.00
2023-04-12T03:57:49.260Z,777.00
2023-04-12T03:58:49.276Z,782.00
2023-04-12T03:59:49.267Z,782.00
2023-04-12T04:00:49.227Z,782.00
2023-04-12T04:01:49.351Z,782.00
2023-04-12T04:02:49.389Z,779.00
2023-04-12T04:03:49.384Z,784.00
2023-04-12T04:04:49.351Z,774.00
2023-04-12T04:05:49.348Z,778.00
2023-04-12T04:06:49.712Z,780.00
2023-04-12T04:07:49.416Z,775.00
2023-04-12T04:08:49.464Z,773.00
2023-04-12T04:09:49.533Z,781.00
2023-04-12T04:10:49.547Z,779.00
2023-04-12T04:11:49.592Z,778.00
2023-04-12T04:12:49.608Z,782.00
2023-04-12T04:13:49.686Z,785.00
2023-04-12T04:14:49.668Z,772.00
2023-04-12T04:15:49.737Z,781.00
2023-04-12T04:16:50.030Z,776.00
2023-04-12T04:17:49.779Z,774.00
2023-04-12T04:18:49.852Z,781.00
2023-04-12T04:19:49.870Z,777.00
2023-04-12T04:20:49.865Z,771.00
2023-04-12T04:21:50.052Z,766.00
2023-04-12T04:22:49.959Z,761.00
2023-04-12T04:23:50.042Z,774.00
2023-04-12T04:24:50.047Z,767.00
2023-04-12T04:25:50.163Z,755.00
2023-04-12T04:26:50.159Z,767.00
2023-04-12T04:27:50.149Z,765.00
2023-04-12T04:28:50.340Z,756.00
2023-04-12T04:29:50.286Z,762.00
2023-04-12T04:30:50.292Z,752.00
2023-04-12T04:31:50.458Z,762.00
2023-04-12T04:32:50.473Z,757.00
2023-04-12T04:33:50.425Z,764.00
2023-04-12T04:34:50.456Z,749.00
2023-04-12T04:35:50.575Z,750.00
2023-04-12T04:36:50.544Z,745.00
2023-04-12T04:37:50.590Z,740.00
2023-04-12T04:38:50.650Z,737.00
2023-04-12T04:39:50.653Z,749.00
2023-04-12T04:40:50.678Z,734.00
2023-04-12T04:41:50.779Z,755.00
2023-04-12T04:42:50.790Z,738.00
2023-04-12T04:43:50.792Z,748.00
2023-04-12T04:44:50.838Z,743.00
2023-04-12T04:45:50.980Z,741.00
2023-04-12T04:46:50.910Z,753.00
2023-04-12T04:47:51.028Z,741.00
2023-04-12T04:48:51.023Z,748.00
2023-04-12T04:49:51.039Z,742.00
2023-04-12T04:50:51.151Z,737.00
2023-04-12T04:51:51.117Z,753.00
2023-04-12T04:52:51.158Z,736.00
2023-04-12T04:53:51.156Z,748.00
2023-04-12T04:54:51.214Z,739.00
2023-04-12T04:55:51.382Z,746.00
2023-04-12T04:56:51.281Z,742.00
2023-04-12T04:57:51.404Z,743.00
2023-04-12T04:58:51.422Z,755.00
2023-04-12T04:59:51.418Z,742.00
2023-04-12T05:00:51.584Z,743.00
2023-04-12T05:01:51.598Z,746.00
2023-04-12T05:02:51.707Z,734.00
2023-04-12T05:03:51.917Z,737.00
2023-04-12T05:04:51.658Z,739.00
2023-04-12T05:05:51.716Z,745.00
2023-04-12T05:06:51.839Z,728.00
2023-04-12T05:07:51.872Z,740.00
2023-04-12T05:08:51.869Z,740.00
2023-04-12T05:09:51.895Z,739.00
2023-04-12T05:10:51.932Z,736.00
2023-04-12T05:11:51.949Z,733.00
2023-04-12T05:12:52.011Z,726.00
2023-04-12T05:13:52.025Z,738.00
2023-04-12T05:14:52.110Z,738.00
2023-04-12T05:15:52.096Z,729.00
2023-04-12T05:16:52.181Z,731.00
2023-04-12T05:17:52.284Z,729.00
2023-04-12T05:18:52.260Z,737.00
2023-04-12T05:19:52.367Z,723.00
2023-04-12T05:20:52.266Z,725.00
2023-04-12T05:21:52.295Z,725.00
2023-04-12T05:22:52.394Z,728.00
2023-04-12T05:23:52.394Z,721.00
2023-04-12T05:24:52.501Z,725.00
2023-04-12T05:25:52.505Z,723.00
2023-04-12T05:26:52.513Z,727.00
2023-04-12T05:27:52.624Z,717.00
2023-04-12T05:28:52.727Z,720.00
2023-04-12T05:29:52.616Z,722.00
2023-04-12T05:30:52.812Z,716.00
2023-04-12T05:31:52.757Z,718.00
2023-04-12T05:32:52.845Z,711.00
2023-04-12T05:33:52.765Z,699.00
2023-04-12T05:34:52.816Z,650.00
2023-04-12T05:35:53.046Z,636.00
2023-04-12T05:36:52.896Z,625.00
2023-04-12T05:37:52.934Z,619.00
2023-04-12T05:38:52.936Z,621.00
2023-04-12T05:39:53.016Z,615.00
2023-04-12T05:40:53.237Z,604.00
2023-04-12T05:41:53.052Z,593.00
2023-04-12T05:42:53.142Z,582.00
2023-04-12T05:43:53.082Z,577.00
2023-04-12T05:44:53.194Z,581.00
2023-04-12T05:45:53.402Z,589.00
2023-04-12T05:46:53.171Z,582.00
2023-04-12T05:47:53.328Z,572.00
2023-04-12T05:48:53.212Z,571.00
2023-04-12T05:49:53.201Z,565.00
2023-04-12T05:50:53.227Z,569.00
2023-04-12T05:51:53.337Z,562.00
2023-04-12T05:52:53.564Z,570.00
2023-04-12T05:53:53.413Z,566.00
2023-04-12T05:54:53.468Z,572.00
2023-04-12T05:55:53.452Z,577.00
2023-04-12T05:56:53.450Z,578.00
2023-04-12T05:57:53.444Z,581.00
2023-04-12T05:58:53.472Z,587.00
2023-04-12T05:59:53.528Z,593.00
2023-04-12T06:00:53.570Z,599.00
2023-04-12T06:01:53.789Z,603.00
2023-04-12T06:02:53.737Z,605.00
2023-04-12T06:03:53.864Z,609.00
2023-04-12T06:04:54.060Z,617.00
2023-04-12T06:05:53.878Z,619.00
2023-04-12T06:06:53.929Z,630.00
2023-04-12T06:07:53.925Z,635.00
2023-04-12T06:08:53.951Z,634.00
2023-04-12T06:09:53.975Z,646.00
2023-04-12T06:10:53.981Z,648.00
2023-04-12T06:11:53.997Z,659.00
2023-04-12T06:12:54.065Z,662.00
2023-04-12T06:13:54.076Z,681.00
2023-04-12T06:14:54.090Z,674.00
2023-04-12T06:15:54.170Z,686.00
2023-04-12T06:16:54.092Z,687.00
2023-04-12T06:17:54.169Z,691.00
2023-04-12T06:18:54.096Z,701.00
2023-04-12T06:19:54.115Z,718.00
2023-04-12T06:20:54.122Z,754.00
2023-04-12T06:21:54.121Z,757.00
2023-04-12T06:22:54.129Z,775.00
2023-04-12T06:23:57.106Z,796.00
2023-04-12T06:24:54.163Z,817.00
2023-04-12T06:25:54.154Z,836.00
2023-04-12T06:26:56.109Z,838.00
2023-04-12T06:27:54.123Z,839.00
2023-04-12T06:28:54.240Z,842.00
2023-04-12T06:29:54.100Z,850.00
2023-04-12T06:30:54.128Z,860.00
2023-04-12T06:31:54.082Z,887.00
2023-04-12T06:32:54.144Z,885.00
2023-04-12T06:33:54.047Z,881.00
2023-04-12T06:34:54.124Z,853.00
2023-04-12T06:35:54.090Z,816.00
2023-04-12T06:36:54.064Z,759.00
2023-04-12T06:37:54.018Z,770.00
2023-04-12T06:38:54.287Z,765.00
2023-04-12T06:39:54.029Z,778.00
2023-04-12T06:40:54.141Z,768.00
2023-04-12T06:41:54.047Z,757.00
2023-04-12T06:42:54.024Z,706.00
2023-04-12T06:43:53.984Z,703.00
2023-04-12T06:44:54.003Z,707.00
2023-04-12T06:45:54.082Z,702.00
2023-04-12T06:46:54.155Z,698.00
2023-04-12T06:47:54.221Z,714.00
2023-04-12T06:48:54.211Z,711.00
2023-04-12T06:49:55.584Z,718.00
2023-04-12T06:50:54.307Z,717.00
2023-04-12T06:51:54.419Z,709.00
2023-04-12T06:52:54.476Z,703.00
2023-04-12T06:53:54.367Z,715.00
2023-04-12T06:54:54.449Z,704.00
2023-04-12T06:55:54.438Z,732.00
2023-04-12T06:56:54.469Z,734.00
2023-04-12T06:57:54.430Z,729.00
2023-04-12T06:58:54.462Z,736.00
2023-04-12T06:59:54.476Z,752.00
2023-04-12T07:00:54.525Z,759.00
2023-04-12T07:01:54.536Z,744.00
2023-04-12T07:02:54.670Z,726.00
2023-04-12T07:03:54.556Z,700.00
2023-04-12T07:04:54.519Z,689.00
2023-04-12T07:05:54.629Z,674.00
2023-04-12T07:06:54.928Z,692.00
2023-04-12T07:07:54.877Z,699.00
2023-04-12T07:08:55.016Z,703.00
2023-04-12T07:09:54.659Z,696.00
2023-04-12T07:10:54.593Z,716.00
2023-04-12T07:11:54.600Z,725.00
2023-04-12T07:12:54.609Z,719.00
2023-04-12T07:13:54.594Z,716.00
2023-04-12T07:14:54.622Z,714.00
2023-04-12T07:15:54.581Z,718.00
2023-04-12T07:16:54.743Z,738.00
2023-04-12T07:17:54.665Z,749.00
2023-04-12T07:18:54.718Z,761.00
2023-04-12T07:19:54.688Z,774.00
2023-04-12T07:20:54.747Z,781.00
2023-04-12T07:21:54.855Z,794.00
2023-04-12T07:22:54.971Z,810.00
2023-04-12T07:23:54.925Z,827.00
2023-04-12T07:24:55.055Z,831.00
2023-04-12T07:25:55.029Z,843.00
2023-04-12T07:26:55.080Z,858.00
2023-04-12T07:27:55.137Z,863.00
2023-04-12T07:28:55.367Z,871.00
2023-04-12T07:29:55.293Z,886.00
2023-04-12T07:30:55.287Z,903.00
2023-04-12T07:31:55.334Z,880.00
2023-04-12T07:33:00.229Z,871.00
2023-04-12T07:33:56.466Z,874.00
2023-04-12T07:34:55.346Z,880.00
2023-04-12T07:35:55.373Z,890.00
2023-04-12T07:36:55.346Z,891.00
2023-04-12T07:37:55.356Z,910.00
2023-04-12T07:38:55.880Z,906.00
2023-04-12T07:39:55.427Z,918.00
2023-04-12T07:40:55.414Z,916.00
2023-04-12T07:41:55.421Z,898.00
2023-04-12T07:42:55.490Z,915.00
2023-04-12T07:43:55.591Z,902.00
2023-04-12T07:44:55.581Z,899.00
2023-04-12T07:45:55.638Z,925.00
2023-04-12T07:46:55.636Z,934.00
2023-04-12T07:47:55.720Z,916.00
2023-04-12T07:48:55.859Z,940.00
2023-04-12T07:49:55.676Z,942.00
2023-04-12T07:50:55.640Z,935.00
2023-04-12T07:51:55.659Z,949.00
2023-04-12T07:52:55.730Z,946.00
2023-04-12T07:53:55.963Z,977.00
2023-04-12T07:54:55.719Z,973.00
2023-04-12T07:55:55.787Z,980.00
2023-04-12T07:56:55.860Z,995.00
2023-04-12T07:57:55.906Z,1003.00
2023-04-12T07:58:56.223Z,999.00
2023-04-12T07:59:56.009Z,1019.00
2023-04-12T08:00:56.076Z,1027.00
2023-04-12T08:01:56.194Z,1031.00
2023-04-12T08:02:56.338Z,1044.00
2023-04-12T08:03:56.614Z,1048.00
2023-04-12T08:04:56.284Z,1076.00
2023-04-12T08:05:56.392Z,1085.00
2023-04-12T08:06:56.424Z,1090.00
2023-04-12T08:07:56.489Z,1101.00
2023-04-12T08:08:56.539Z,1102.00
2023-04-12T08:09:56.538Z,1113.00
2023-04-12T08:10:56.620Z,1128.00
2023-04-12T08:11:56.661Z,1120.00
2023-04-12T08:12:56.657Z,1138.00
2023-04-12T08:13:56.937Z,1139.00
2023-04-12T08:14:56.763Z,1154.00
2023-04-12T08:15:56.946Z,1170.00
2023-04-12T08:16:56.862Z,1200.00
2023-04-12T08:17:56.918Z,1217.00
2023-04-12T08:18:56.958Z,1221.00
2023-04-12T08:19:57.016Z,1238.00
2023-04-12T08:20:57.170Z,1240.00
2023-04-12T08:21:57.118Z,1238.00
2023-04-12T08:22:57.025Z,1242.00
2023-04-12T08:23:57.472Z,1243.00
2023-04-12T08:24:57.132Z,1246.00
2023-04-12T08:25:57.222Z,1253.00
2023-04-12T08:26:57.226Z,1251.00
2023-04-12T08:27:57.230Z,1257.00
2023-04-12T08:28:57.275Z,1239.00
2023-04-12T08:29:57.285Z,1270.00
2023-04-12T08:30:57.410Z,1281.00
2023-04-12T08:31:57.405Z,1275.00
2023-04-12T08:32:57.446Z,1271.00
2023-04-12T08:33:57.596Z,1272.00
2023-04-12T08:34:57.421Z,1272.00
2023-04-12T08:35:57.498Z,1261.00
2023-04-12T08:36:57.502Z,1264.00
2023-04-12T08:37:57.556Z,1271.00
2023-04-12T08:38:57.584Z,1266.00
2023-04-12T08:39:57.600Z,1264.00
2023-04-12T08:40:57.645Z,1259.00
2023-04-12T08:41:57.734Z,1259.00
2023-04-12T08:42:57.741Z,1243.00
2023-04-12T08:43:58.006Z,1181.00
2023-04-12T08:44:57.851Z,1136.00
2023-04-12T08:45:57.911Z,1066.00
2023-04-12T08:46:58.010Z,1069.00
2023-04-12T08:47:58.090Z,1082.00
2023-04-12T08:48:58.008Z,1119.00
2023-04-12T08:49:58.027Z,1113.00
2023-04-12T08:50:58.155Z,1114.00
2023-04-12T08:51:58.207Z,1114.00
2023-04-12T08:52:58.265Z,1069.00
2023-04-12T08:53:58.448Z,1056.00
2023-04-12T08:54:58.342Z,988.00
2023-04-12T08:55:58.438Z,960.00
2023-04-12T08:56:58.436Z,956.00
2023-04-12T08:57:58.521Z,809.00
2023-04-12T08:58:58.704Z,748.00
2023-04-12T08:59:58.538Z,660.00
2023-04-12T09:00:58.584Z,674.00
2023-04-12T09:01:58.680Z,689.00
2023-04-12T09:02:58.704Z,685.00
2023-04-12T09:03:59.478Z,712.00
2023-04-12T09:04:59.178Z,726.00
2023-04-12T09:05:58.663Z,749.00
2023-04-12T09:06:58.644Z,772.00
2023-04-12T09:07:58.726Z,782.00
2023-04-12T09:08:59.185Z,778.00
2023-04-12T09:09:58.664Z,778.00
2023-04-12T09:10:58.645Z,759.00
2023-04-12T09:11:58.718Z,746.00
2023-04-12T09:12:58.787Z,765.00
2023-04-12T09:13:59.158Z,772.00
2023-04-12T09:14:58.875Z,768.00
2023-04-12T09:15:58.931Z,789.00
2023-04-12T09:16:59.103Z,818.00
2023-04-12T09:17:59.073Z,805.00
2023-04-12T09:18:59.270Z,815.00
2023-04-12T09:19:59.145Z,824.00
2023-04-12T09:20:59.210Z,820.00
2023-04-12T09:21:59.246Z,833.00
2023-04-12T09:22:59.357Z,838.00
2023-04-12T09:23:59.477Z,839.00
2023-04-12T09:24:59.460Z,845.00
2023-04-12T09:25:59.458Z,845.00
2023-04-12T09:26:59.534Z,847.00
2023-04-12T09:27:59.576Z,848.00
2023-04-12T09:28:59.666Z,833.00
2023-04-12T09:30:00.134Z,844.00
2023-04-12T09:30:59.759Z,847.00
2023-04-12T09:31:59.891Z,835.00
2023-04-12T09:32:59.889Z,671.00
2023-04-12T09:33:59.912Z,578.00
2023-04-12T09:35:00.171Z,557.00
2023-04-12T09:36:00.044Z,573.00
2023-04-12T09:36:59.960Z,567.00
2023-04-12T09:37:59.963Z,585.00
2023-04-12T09:38:59.981Z,608.00
2023-04-12T09:39:59.998Z,602.00
2023-04-12T09:41:00.098Z,607.00
2023-04-12T09:41:59.989Z,597.00
2023-04-12T09:42:59.991Z,597.00
2023-04-12T09:44:00.365Z,566.00
2023-04-12T09:45:00.005Z,580.00
2023-04-12T09:46:00.024Z,577.00
2023-04-12T09:47:00.195Z,578.00
2023-04-12T09:48:00.093Z,578.00
2023-04-12T09:49:00.051Z,561.00
2023-04-12T09:50:00.092Z,571.00
2023-04-12T09:51:00.125Z,572.00
2023-04-12T09:52:00.155Z,564.00
2023-04-12T09:53:00.135Z,560.00
2023-04-12T09:54:00.173Z,555.00
2023-04-12T09:55:00.129Z,556.00
2023-04-12T09:56:00.076Z,554.00
2023-04-12T09:57:00.140Z,562.00
2023-04-12T09:58:00.149Z,561.00
2023-04-12T09:59:00.151Z,564.00
2023-04-12T10:00:00.220Z,573.00
2023-04-12T10:01:00.099Z,580.00
2023-04-12T10:02:00.279Z,561.00
2023-04-12T10:03:00.209Z,561.00
2023-04-12T10:04:00.494Z,559.00
2023-04-12T10:05:00.253Z,547.00
2023-04-12T10:06:00.163Z,548.00
2023-04-12T10:07:00.069Z,540.00
2023-04-12T10:08:00.177Z,535.00
2023-04-12T10:09:00.163Z,534.00
2023-04-12T10:10:00.161Z,535.00
2023-04-12T10:11:00.173Z,530.00
2023-04-12T10:12:00.168Z,529.00
2023-04-12T10:13:00.124Z,528.00
2023-04-12T10:14:00.310Z,529.00
2023-04-12T10:15:00.185Z,525.00
2023-04-12T10:16:00.202Z,539.00
2023-04-12T10:17:00.152Z,525.00
2023-04-12T10:18:00.219Z,541.00
2023-04-12T10:19:00.289Z,553.00
2023-04-12T10:20:00.164Z,551.00
2023-04-12T10:21:00.144Z,548.00
2023-04-12T10:22:00.172Z,554.00
2023-04-12T10:23:00.166Z,556.00
2023-04-12T10:24:00.240Z,554.00
2023-04-12T10:25:00.211Z,560.00
2023-04-12T10:26:00.154Z,561.00
2023-04-12T10:27:00.194Z,570.00
2023-04-12T10:28:00.154Z,568.00
2023-04-12T10:29:00.132Z,570.00
2023-04-12T10:30:00.158Z,558.00
2023-04-12T10:31:00.266Z,574.00
2023-04-12T10:32:00.189Z,540.00
2023-04-12T10:33:00.198Z,503.00
2023-04-12T10:34:00.132Z,500.00
2023-04-12T10:35:00.110Z,479.00
2023-04-12T10:36:00.400Z,508.00
2023-04-12T10:37:00.217Z,507.00
2023-04-12T10:38:00.242Z,530.00
2023-04-12T10:39:00.391Z,545.00
2023-04-12T10:40:00.319Z,564.00
2023-04-12T10:41:00.315Z,596.00
2023-04-12T10:42:00.329Z,609.00
2023-04-12T10:43:00.345Z,613.00
2023-04-12T10:44:00.393Z,600.00
2023-04-12T10:45:01.122Z,604.00
2023-04-12T10:46:00.397Z,621.00
2023-04-12T10:47:00.434Z,621.00
2023-04-12T10:48:00.500Z,617.00
2023-04-12T10:49:00.477Z,638.00
2023-04-12T10:50:00.485Z,634.00
2023-04-12T10:51:00.508Z,639.00
2023-04-12T10:52:00.494Z,645.00
2023-04-12T10:53:00.515Z,652.00
2023-04-12T10:54:00.510Z,654.00
2023-04-12T10:55:00.511Z,642.00
2023-04-12T10:56:01.212Z,656.00
2023-04-12T10:57:00.533Z,719.00
2023-04-12T10:58:00.505Z,782.00
2023-04-12T10:59:00.810Z,734.00
2023-04-12T11:00:00.545Z,692.00
2023-04-12T11:01:01.040Z,680.00
2023-04-12T11:02:00.795Z,734.00
2023-04-12T11:03:00.745Z,698.00
2023-04-12T11:04:00.725Z,682.00
2023-04-12T11:05:00.525Z,685.00
2023-04-12T11:06:06.468Z,662.00
2023-04-12T11:07:01.504Z,663.00
2023-04-12T11:08:00.482Z,665.00
2023-04-12T11:09:00.834Z,669.00
2023-04-12T11:10:00.426Z,692.00
2023-04-12T11:11:00.502Z,706.00
2023-04-12T11:12:00.559Z,706.00
2023-04-12T11:13:00.415Z,727.00
2023-04-12T11:14:00.445Z,711.00
2023-04-12T11:15:00.445Z,751.00
2023-04-12T11:16:00.418Z,704.00
2023-04-12T11:17:00.463Z,760.00
2023-04-12T11:18:00.545Z,720.00
2023-04-12T11:19:00.594Z,744.00
2023-04-12T11:20:00.462Z,692.00
2023-04-12T11:21:00.494Z,738.00
2023-04-12T11:22:00.563Z,695.00
2023-04-12T11:23:00.616Z,714.00
2023-04-12T11:24:00.695Z,770.00
2023-04-12T11:25:00.751Z,806.00
2023-04-12T11:26:00.778Z,838.00
2023-04-12T11:27:00.849Z,847.00
2023-04-12T11:28:00.883Z,831.00
2023-04-12T11:29:00.924Z,833.00
2023-04-12T11:30:00.977Z,830.00
2023-04-12T11:31:00.975Z,807.00
2023-04-12T11:32:01.194Z,826.00
2023-04-12T11:33:01.238Z,870.00
2023-04-12T11:34:01.199Z,879.00
2023-04-12T11:35:01.232Z,898.00
2023-04-12T11:36:01.290Z,892.00
2023-04-12T11:37:01.314Z,910.00
2023-04-12T11:38:01.407Z,915.00
2023-04-12T11:39:01.441Z,932.00
2023-04-12T11:40:01.525Z,950.00
2023-04-12T11:41:01.593Z,958.00
2023-04-12T11:42:01.597Z,959.00
2023-04-12T11:43:01.656Z,971.00
2023-04-12T11:44:01.754Z,972.00
2023-04-12T11:45:05.667Z,968.00
2023-04-12T11:46:02.774Z,969.00
2023-04-12T11:47:01.758Z,972.00
2023-04-12T11:48:01.747Z,973.00
2023-04-12T11:49:01.694Z,987.00
2023-04-12T11:50:01.704Z,993.00
2023-04-12T11:51:11.006Z,994.00
2023-04-12T11:52:02.707Z,995.00
2023-04-12T11:53:01.695Z,998.00
2023-04-12T11:54:01.647Z,998.00
2023-04-12T11:55:01.787Z,992.00
2023-04-12T11:56:01.663Z,1002.00
2023-04-12T11:57:04.179Z,999.00
2023-04-12T11:58:01.614Z,999.00
2023-04-12T11:59:01.608Z,999.00
2023-04-12T12:00:01.714Z,999.00
2023-04-12T12:01:01.590Z,1001.00
2023-04-12T12:02:06.249Z,993.00
2023-04-12T12:03:07.336Z,1000.00
2023-04-12T12:04:03.149Z,1001.00
2023-04-12T12:05:01.805Z,1001.00
2023-04-12T12:06:01.878Z,1004.00
2023-04-12T12:07:01.709Z,1007.00
2023-04-12T12:08:01.605Z,1009.00
2023-04-12T12:09:01.565Z,1004.00
2023-04-12T12:10:01.540Z,1004.00
2023-04-12T12:12:01.570Z,1001.00
2023-04-12T12:13:01.504Z,1003.00
2023-04-12T12:14:01.604Z,1001.00
2023-04-12T12:15:01.600Z,994.00
2023-04-12T12:16:01.584Z,994.00
2023-04-12T12:17:01.526Z,992.00
2023-04-12T12:18:01.537Z,997.00
2023-04-12T12:19:01.503Z,999.00
2023-04-12T12:20:01.500Z,995.00
2023-04-12T12:21:01.486Z,977.00
2023-04-12T12:22:01.420Z,987.00
2023-04-12T12:23:01.461Z,994.00
2023-04-12T12:24:01.676Z,982.00
2023-04-12T12:25:01.422Z,991.00
2023-04-12T12:26:17.045Z,986.00
2023-04-12T12:27:02.437Z,988.00
2023-04-12T12:28:01.462Z,991.00